sensor_id;sensor_type;location;lat;lon;timestamp;P1;durP1;ratioP1;P2;durP2;ratioP2
73428;SDS011;61643;49.564;17.412;2024-01-30T00:02:11;18.98;;;6.82;;
73428;SDS011;61643;49.564;17.412;2024-01-30T00:04:37;16.52;;;6.93;;
73428;SDS011;61643;49.564;17.412;2024-01-30T00:07:03;20.73;;;7.70;;
73428;SDS011;61643;49.564;17.412;2024-01-30T00:09:29;16.77;;;7.22;;
73428;SDS011;61643;49.564;17.412;2024-01-30T00:11:55;18.38;;;7.30;;
73428;SDS011;61643;49.564;17.412;2024-01-30T00:14:21;19.48;;;6.93;;
73428;SDS011;61643;49.564;17.412;2024-01-30T00:16:48;17.55;;;6.90;;
73428;SDS011;61643;49.564;17.412;2024-01-30T00:19:14;15.75;;;7.30;;
73428;SDS011;61643;49.564;17.412;2024-01-30T00:21:40;16.73;;;7.22;;
73428;SDS011;61643;49.564;17.412;2024-01-30T00:24:06;16.48;;;6.75;;
73428;SDS011;61643;49.564;17.412;2024-01-30T00:26:33;18.55;;;7.00;;
73428;SDS011;61643;49.564;17.412;2024-01-30T00:28:59;13.57;;;6.20;;
73428;SDS011;61643;49.564;17.412;2024-01-30T00:31:25;17.33;;;6.68;;
73428;SDS011;61643;49.564;17.412;2024-01-30T00:33:51;13.82;;;6.00;;
73428;SDS011;61643;49.564;17.412;2024-01-30T00:36:17;15.55;;;6.60;;
73428;SDS011;61643;49.564;17.412;2024-01-30T00:38:43;14.18;;;6.78;;
73428;SDS011;61643;49.564;17.412;2024-01-30T00:41:09;16.15;;;6.25;;
73428;SDS011;61643;49.564;17.412;2024-01-30T00:43:35;13.20;;;6.05;;
73428;SDS011;61643;49.564;17.412;2024-01-30T00:46:01;17.63;;;6.85;;
73428;SDS011;61643;49.564;17.412;2024-01-30T00:48:27;15.57;;;6.35;;
73428;SDS011;61643;49.564;17.412;2024-01-30T00:50:53;17.73;;;6.90;;
73428;SDS011;61643;49.564;17.412;2024-01-30T00:53:20;17.80;;;7.57;;
73428;SDS011;61643;49.564;17.412;2024-01-30T00:55:46;19.00;;;7.07;;
73428;SDS011;61643;49.564;17.412;2024-01-30T00:58:12;16.02;;;7.68;;
73428;SDS011;61643;49.564;17.412;2024-01-30T01:00:38;25.73;;;9.65;;
73428;SDS011;61643;49.564;17.412;2024-01-30T01:03:04;25.25;;;9.38;;
73428;SDS011;61643;49.564;17.412;2024-01-30T01:05:30;26.17;;;9.48;;
73428;SDS011;61643;49.564;17.412;2024-01-30T01:07:56;22.40;;;9.60;;
73428;SDS011;61643;49.564;17.412;2024-01-30T01:10:22;24.10;;;9.13;;
73428;SDS011;61643;49.564;17.412;2024-01-30T01:12:48;19.30;;;8.07;;
73428;SDS011;61643;49.564;17.412;2024-01-30T01:15:14;19.65;;;9.00;;
73428;SDS011;61643;49.564;17.412;2024-01-30T01:17:40;24.75;;;8.88;;
73428;SDS011;61643;49.564;17.412;2024-01-30T01:20:06;21.65;;;8.43;;
73428;SDS011;61643;49.564;17.412;2024-01-30T01:22:33;17.73;;;7.10;;
73428;SDS011;61643;49.564;17.412;2024-01-30T01:25:00;19.90;;;7.82;;
73428;SDS011;61643;49.564;17.412;2024-01-30T01:27:26;17.38;;;7.45;;
73428;SDS011;61643;49.564;17.412;2024-01-30T01:29:52;17.08;;;7.32;;
73428;SDS011;61643;49.564;17.412;2024-01-30T01:32:19;19.08;;;7.30;;
73428;SDS011;61643;49.564;17.412;2024-01-30T01:34:45;17.80;;;7.18;;
73428;SDS011;61643;49.564;17.412;2024-01-30T01:37:11;13.45;;;6.32;;
73428;SDS011;61643;49.564;17.412;2024-01-30T01:39:37;15.70;;;7.18;;
73428;SDS011;61643;49.564;17.412;2024-01-30T01:42:03;20.10;;;6.72;;
73428;SDS011;61643;49.564;17.412;2024-01-30T01:44:29;18.35;;;6.78;;
73428;SDS011;61643;49.564;17.412;2024-01-30T01:46:55;17.83;;;7.32;;
73428;SDS011;61643;49.564;17.412;2024-01-30T01:49:24;16.10;;;7.03;;
73428;SDS011;61643;49.564;17.412;2024-01-30T01:51:53;16.65;;;7.03;;
73428;SDS011;61643;49.564;17.412;2024-01-30T01:54:22;18.80;;;7.40;;
73428;SDS011;61643;49.564;17.412;2024-01-30T01:56:49;17.42;;;7.22;;
73428;SDS011;61643;49.564;17.412;2024-01-30T01:59:16;17.95;;;7.63;;
73428;SDS011;61643;49.564;17.412;2024-01-30T02:01:43;16.88;;;7.32;;
73428;SDS011;61643;49.564;17.412;2024-01-30T02:04:11;15.77;;;6.25;;
73428;SDS011;61643;49.564;17.412;2024-01-30T02:06:37;15.65;;;6.22;;
73428;SDS011;61643;49.564;17.412;2024-01-30T02:09:04;16.92;;;7.00;;
73428;SDS011;61643;49.564;17.412;2024-01-30T02:11:30;12.00;;;5.93;;
73428;SDS011;61643;49.564;17.412;2024-01-30T02:13:56;15.63;;;6.50;;
73428;SDS011;61643;49.564;17.412;2024-01-30T02:16:22;14.05;;;5.80;;
73428;SDS011;61643;49.564;17.412;2024-01-30T02:18:48;13.88;;;6.07;;
73428;SDS011;61643;49.564;17.412;2024-01-30T02:21:15;13.43;;;5.68;;
73428;SDS011;61643;49.564;17.412;2024-01-30T02:23:42;15.77;;;6.05;;
73428;SDS011;61643;49.564;17.412;2024-01-30T02:26:10;14.18;;;5.85;;
73428;SDS011;61643;49.564;17.412;2024-01-30T02:28:37;12.35;;;5.88;;
73428;SDS011;61643;49.564;17.412;2024-01-30T02:31:04;19.77;;;6.55;;
73428;SDS011;61643;49.564;17.412;2024-01-30T02:33:30;14.20;;;6.00;;
73428;SDS011;61643;49.564;17.412;2024-01-30T02:35:56;12.35;;;5.90;;
73428;SDS011;61643;49.564;17.412;2024-01-30T02:38:22;16.92;;;6.28;;
73428;SDS011;61643;49.564;17.412;2024-01-30T02:40:49;15.93;;;6.43;;
73428;SDS011;61643;49.564;17.412;2024-01-30T02:43:15;13.93;;;5.45;;
73428;SDS011;61643;49.564;17.412;2024-01-30T02:45:42;14.05;;;5.80;;
73428;SDS011;61643;49.564;17.412;2024-01-30T02:48:08;13.45;;;5.68;;
73428;SDS011;61643;49.564;17.412;2024-01-30T02:50:34;14.73;;;6.45;;
73428;SDS011;61643;49.564;17.412;2024-01-30T02:53:00;14.25;;;6.07;;
73428;SDS011;61643;49.564;17.412;2024-01-30T02:55:26;13.73;;;6.05;;
73428;SDS011;61643;49.564;17.412;2024-01-30T02:57:52;16.00;;;6.65;;
73428;SDS011;61643;49.564;17.412;2024-01-30T03:00:19;16.88;;;6.35;;
73428;SDS011;61643;49.564;17.412;2024-01-30T03:02:45;15.57;;;6.15;;
73428;SDS011;61643;49.564;17.412;2024-01-30T03:05:13;17.63;;;6.13;;
73428;SDS011;61643;49.564;17.412;2024-01-30T03:07:38;14.88;;;5.93;;
73428;SDS011;61643;49.564;17.412;2024-01-30T03:10:05;16.20;;;6.07;;
73428;SDS011;61643;49.564;17.412;2024-01-30T03:12:31;15.18;;;6.25;;
73428;SDS011;61643;49.564;17.412;2024-01-30T03:14:58;15.00;;;5.88;;
73428;SDS011;61643;49.564;17.412;2024-01-30T03:17:24;13.93;;;6.25;;
73428;SDS011;61643;49.564;17.412;2024-01-30T03:19:50;16.92;;;6.95;;
73428;SDS011;61643;49.564;17.412;2024-01-30T03:22:16;15.57;;;6.25;;
73428;SDS011;61643;49.564;17.412;2024-01-30T03:24:42;14.32;;;5.90;;
73428;SDS011;61643;49.564;17.412;2024-01-30T03:27:08;12.60;;;6.07;;
73428;SDS011;61643;49.564;17.412;2024-01-30T03:29:34;19.40;;;6.65;;
73428;SDS011;61643;49.564;17.412;2024-01-30T03:32:00;14.85;;;5.60;;
73428;SDS011;61643;49.564;17.412;2024-01-30T03:34:26;12.77;;;5.88;;
73428;SDS011;61643;49.564;17.412;2024-01-30T03:36:52;13.57;;;6.00;;
73428;SDS011;61643;49.564;17.412;2024-01-30T03:39:18;16.00;;;5.75;;
73428;SDS011;61643;49.564;17.412;2024-01-30T03:41:44;12.73;;;5.75;;
73428;SDS011;61643;49.564;17.412;2024-01-30T03:44:10;14.82;;;5.75;;
73428;SDS011;61643;49.564;17.412;2024-01-30T03:46:37;15.13;;;5.50;;
73428;SDS011;61643;49.564;17.412;2024-01-30T03:49:03;16.40;;;6.05;;
73428;SDS011;61643;49.564;17.412;2024-01-30T03:51:29;12.98;;;5.50;;
73428;SDS011;61643;49.564;17.412;2024-01-30T03:53:55;10.73;;;5.78;;
73428;SDS011;61643;49.564;17.412;2024-01-30T03:56:21;13.30;;;5.75;;
73428;SDS011;61643;49.564;17.412;2024-01-30T03:58:47;13.98;;;5.68;;
73428;SDS011;61643;49.564;17.412;2024-01-30T04:01:15;14.85;;;6.10;;
73428;SDS011;61643;49.564;17.412;2024-01-30T04:03:41;16.15;;;5.53;;
73428;SDS011;61643;49.564;17.412;2024-01-30T04:06:09;15.10;;;6.30;;
73428;SDS011;61643;49.564;17.412;2024-01-30T04:08:35;19.10;;;6.47;;
73428;SDS011;61643;49.564;17.412;2024-01-30T04:11:04;14.10;;;6.43;;
73428;SDS011;61643;49.564;17.412;2024-01-30T04:13:31;12.70;;;5.68;;
73428;SDS011;61643;49.564;17.412;2024-01-30T04:16:01;15.23;;;5.50;;
73428;SDS011;61643;49.564;17.412;2024-01-30T04:18:28;13.73;;;5.60;;
73428;SDS011;61643;49.564;17.412;2024-01-30T04:20:54;12.48;;;5.60;;
73428;SDS011;61643;49.564;17.412;2024-01-30T04:23:20;15.52;;;6.18;;
73428;SDS011;61643;49.564;17.412;2024-01-30T04:25:46;12.82;;;5.75;;
73428;SDS011;61643;49.564;17.412;2024-01-30T04:28:12;18.25;;;6.53;;
73428;SDS011;61643;49.564;17.412;2024-01-30T04:30:38;12.57;;;5.43;;
73428;SDS011;61643;49.564;17.412;2024-01-30T04:33:05;13.43;;;6.60;;
73428;SDS011;61643;49.564;17.412;2024-01-30T04:35:31;15.90;;;7.10;;
73428;SDS011;61643;49.564;17.412;2024-01-30T04:37:57;18.63;;;7.00;;
73428;SDS011;61643;49.564;17.412;2024-01-30T04:40:23;16.27;;;7.15;;
73428;SDS011;61643;49.564;17.412;2024-01-30T04:42:49;17.27;;;7.50;;
73428;SDS011;61643;49.564;17.412;2024-01-30T04:45:15;20.88;;;7.85;;
73428;SDS011;61643;49.564;17.412;2024-01-30T04:47:41;19.27;;;7.93;;
73428;SDS011;61643;49.564;17.412;2024-01-30T04:50:07;22.48;;;8.75;;
73428;SDS011;61643;49.564;17.412;2024-01-30T04:52:34;23.92;;;8.45;;
73428;SDS011;61643;49.564;17.412;2024-01-30T04:55:00;29.35;;;10.70;;
73428;SDS011;61643;49.564;17.412;2024-01-30T04:57:26;25.13;;;9.63;;
73428;SDS011;61643;49.564;17.412;2024-01-30T04:59:53;23.88;;;9.38;;
73428;SDS011;61643;49.564;17.412;2024-01-30T05:02:19;23.63;;;10.25;;
73428;SDS011;61643;49.564;17.412;2024-01-30T05:04:45;24.33;;;9.82;;
73428;SDS011;61643;49.564;17.412;2024-01-30T05:07:11;28.77;;;10.85;;
73428;SDS011;61643;49.564;17.412;2024-01-30T05:09:37;25.35;;;10.55;;
73428;SDS011;61643;49.564;17.412;2024-01-30T05:12:03;26.88;;;9.48;;
73428;SDS011;61643;49.564;17.412;2024-01-30T05:14:29;21.02;;;8.65;;
73428;SDS011;61643;49.564;17.412;2024-01-30T05:16:55;24.98;;;10.13;;
73428;SDS011;61643;49.564;17.412;2024-01-30T05:19:21;20.45;;;8.48;;
73428;SDS011;61643;49.564;17.412;2024-01-30T05:21:49;23.48;;;8.50;;
73428;SDS011;61643;49.564;17.412;2024-01-30T05:24:15;26.15;;;8.90;;
73428;SDS011;61643;49.564;17.412;2024-01-30T05:26:41;20.35;;;7.88;;
73428;SDS011;61643;49.564;17.412;2024-01-30T05:29:07;22.40;;;8.38;;
73428;SDS011;61643;49.564;17.412;2024-01-30T05:31:34;16.30;;;7.68;;
73428;SDS011;61643;49.564;17.412;2024-01-30T05:34:00;18.92;;;8.07;;
73428;SDS011;61643;49.564;17.412;2024-01-30T05:36:26;20.83;;;7.60;;
73428;SDS011;61643;49.564;17.412;2024-01-30T05:38:52;19.02;;;7.57;;
73428;SDS011;61643;49.564;17.412;2024-01-30T05:41:18;20.83;;;7.47;;
73428;SDS011;61643;49.564;17.412;2024-01-30T05:43:46;20.20;;;7.78;;
73428;SDS011;61643;49.564;17.412;2024-01-30T05:46:12;19.30;;;7.53;;
73428;SDS011;61643;49.564;17.412;2024-01-30T05:48:38;18.13;;;7.78;;
73428;SDS011;61643;49.564;17.412;2024-01-30T05:51:04;23.38;;;8.00;;
73428;SDS011;61643;49.564;17.412;2024-01-30T05:53:32;20.70;;;8.45;;
73428;SDS011;61643;49.564;17.412;2024-01-30T05:55:58;18.55;;;7.15;;
73428;SDS011;61643;49.564;17.412;2024-01-30T05:58:25;21.98;;;8.70;;
73428;SDS011;61643;49.564;17.412;2024-01-30T06:00:51;22.10;;;8.63;;
73428;SDS011;61643;49.564;17.412;2024-01-30T06:03:17;23.90;;;8.02;;
73428;SDS011;61643;49.564;17.412;2024-01-30T06:05:43;18.35;;;7.30;;
73428;SDS011;61643;49.564;17.412;2024-01-30T06:08:09;20.88;;;8.00;;
73428;SDS011;61643;49.564;17.412;2024-01-30T06:10:35;21.05;;;7.95;;
73428;SDS011;61643;49.564;17.412;2024-01-30T06:13:01;19.52;;;7.82;;
73428;SDS011;61643;49.564;17.412;2024-01-30T06:15:28;23.02;;;7.43;;
73428;SDS011;61643;49.564;17.412;2024-01-30T06:17:55;20.55;;;7.80;;
73428;SDS011;61643;49.564;17.412;2024-01-30T06:20:21;17.27;;;7.30;;
73428;SDS011;61643;49.564;17.412;2024-01-30T06:22:47;20.20;;;7.43;;
73428;SDS011;61643;49.564;17.412;2024-01-30T06:25:13;21.58;;;7.60;;
73428;SDS011;61643;49.564;17.412;2024-01-30T06:27:39;18.80;;;7.03;;
73428;SDS011;61643;49.564;17.412;2024-01-30T06:30:06;20.58;;;7.82;;
73428;SDS011;61643;49.564;17.412;2024-01-30T06:32:32;16.08;;;7.32;;
73428;SDS011;61643;49.564;17.412;2024-01-30T06:35:00;17.13;;;6.75;;
73428;SDS011;61643;49.564;17.412;2024-01-30T06:37:26;20.27;;;7.20;;
73428;SDS011;61643;49.564;17.412;2024-01-30T06:39:52;19.77;;;7.25;;
73428;SDS011;61643;49.564;17.412;2024-01-30T06:42:18;20.65;;;7.57;;
73428;SDS011;61643;49.564;17.412;2024-01-30T06:44:44;15.05;;;6.88;;
73428;SDS011;61643;49.564;17.412;2024-01-30T06:47:10;22.00;;;8.40;;
73428;SDS011;61643;49.564;17.412;2024-01-30T06:49:36;15.63;;;7.07;;
73428;SDS011;61643;49.564;17.412;2024-01-30T06:52:07;20.42;;;7.75;;
73428;SDS011;61643;49.564;17.412;2024-01-30T06:54:33;23.25;;;8.80;;
73428;SDS011;61643;49.564;17.412;2024-01-30T06:56:59;23.08;;;8.35;;
73428;SDS011;61643;49.564;17.412;2024-01-30T06:59:25;21.48;;;8.13;;
73428;SDS011;61643;49.564;17.412;2024-01-30T07:01:51;27.63;;;9.10;;
73428;SDS011;61643;49.564;17.412;2024-01-30T07:04:17;20.90;;;8.95;;
73428;SDS011;61643;49.564;17.412;2024-01-30T07:06:44;31.90;;;11.43;;
73428;SDS011;61643;49.564;17.412;2024-01-30T07:09:10;27.58;;;11.13;;
73428;SDS011;61643;49.564;17.412;2024-01-30T07:11:36;44.38;;;16.55;;
73428;SDS011;61643;49.564;17.412;2024-01-30T07:14:02;30.23;;;12.45;;
73428;SDS011;61643;49.564;17.412;2024-01-30T07:16:30;42.40;;;15.55;;
73428;SDS011;61643;49.564;17.412;2024-01-30T07:18:56;43.15;;;15.65;;
73428;SDS011;61643;49.564;17.412;2024-01-30T07:21:22;39.03;;;14.55;;
73428;SDS011;61643;49.564;17.412;2024-01-30T07:23:54;31.63;;;11.82;;
73428;SDS011;61643;49.564;17.412;2024-01-30T07:26:20;24.83;;;9.82;;
73428;SDS011;61643;49.564;17.412;2024-01-30T07:28:46;29.45;;;11.38;;
73428;SDS011;61643;49.564;17.412;2024-01-30T07:31:12;27.50;;;10.90;;
73428;SDS011;61643;49.564;17.412;2024-01-30T07:33:38;17.55;;;8.60;;
73428;SDS011;61643;49.564;17.412;2024-01-30T07:36:04;23.13;;;8.88;;
73428;SDS011;61643;49.564;17.412;2024-01-30T07:38:34;17.08;;;7.85;;
73428;SDS011;61643;49.564;17.412;2024-01-30T07:41:00;17.65;;;8.02;;
73428;SDS011;61643;49.564;17.412;2024-01-30T07:43:26;18.27;;;7.30;;
73428;SDS011;61643;49.564;17.412;2024-01-30T07:45:52;20.23;;;7.55;;
73428;SDS011;61643;49.564;17.412;2024-01-30T07:48:18;20.48;;;8.50;;
73428;SDS011;61643;49.564;17.412;2024-01-30T07:50:44;18.70;;;7.95;;
73428;SDS011;61643;49.564;17.412;2024-01-30T07:53:10;19.40;;;7.35;;
73428;SDS011;61643;49.564;17.412;2024-01-30T07:55:35;20.40;;;7.88;;
73428;SDS011;61643;49.564;17.412;2024-01-30T07:58:01;19.27;;;8.07;;
73428;SDS011;61643;49.564;17.412;2024-01-30T08:00:29;18.25;;;7.32;;
73428;SDS011;61643;49.564;17.412;2024-01-30T08:02:55;18.33;;;8.82;;
73428;SDS011;61643;49.564;17.412;2024-01-30T08:05:21;17.55;;;7.47;;
73428;SDS011;61643;49.564;17.412;2024-01-30T08:07:48;17.63;;;7.57;;
73428;SDS011;61643;49.564;17.412;2024-01-30T08:10:15;20.98;;;8.65;;
73428;SDS011;61643;49.564;17.412;2024-01-30T08:12:41;17.63;;;7.68;;
73428;SDS011;61643;49.564;17.412;2024-01-30T08:15:07;19.10;;;8.07;;
73428;SDS011;61643;49.564;17.412;2024-01-30T08:17:34;18.75;;;7.95;;
73428;SDS011;61643;49.564;17.412;2024-01-30T08:20:00;17.10;;;7.47;;
73428;SDS011;61643;49.564;17.412;2024-01-30T08:22:26;20.67;;;8.43;;
73428;SDS011;61643;49.564;17.412;2024-01-30T08:24:52;21.35;;;8.05;;
73428;SDS011;61643;49.564;17.412;2024-01-30T08:27:17;19.45;;;8.80;;
73428;SDS011;61643;49.564;17.412;2024-01-30T08:29:43;17.73;;;8.02;;
73428;SDS011;61643;49.564;17.412;2024-01-30T08:32:09;22.88;;;8.57;;
73428;SDS011;61643;49.564;17.412;2024-01-30T08:34:35;19.98;;;8.02;;
73428;SDS011;61643;49.564;17.412;2024-01-30T08:37:01;25.15;;;7.93;;
73428;SDS011;61643;49.564;17.412;2024-01-30T08:39:27;18.60;;;8.00;;
73428;SDS011;61643;49.564;17.412;2024-01-30T08:41:53;22.02;;;8.00;;
73428;SDS011;61643;49.564;17.412;2024-01-30T08:44:19;22.08;;;8.80;;
73428;SDS011;61643;49.564;17.412;2024-01-30T08:46:45;23.30;;;8.18;;
73428;SDS011;61643;49.564;17.412;2024-01-30T08:49:11;24.85;;;8.93;;
73428;SDS011;61643;49.564;17.412;2024-01-30T08:51:39;21.60;;;7.88;;
73428;SDS011;61643;49.564;17.412;2024-01-30T08:54:05;19.58;;;7.90;;
73428;SDS011;61643;49.564;17.412;2024-01-30T08:56:31;23.00;;;8.50;;
73428;SDS011;61643;49.564;17.412;2024-01-30T08:58:57;17.35;;;7.80;;
73428;SDS011;61643;49.564;17.412;2024-01-30T09:01:23;23.55;;;8.30;;
73428;SDS011;61643;49.564;17.412;2024-01-30T09:03:50;23.40;;;8.70;;
73428;SDS011;61643;49.564;17.412;2024-01-30T09:06:16;21.95;;;9.13;;
73428;SDS011;61643;49.564;17.412;2024-01-30T09:08:42;22.63;;;8.40;;
73428;SDS011;61643;49.564;17.412;2024-01-30T09:11:09;21.15;;;8.68;;
73428;SDS011;61643;49.564;17.412;2024-01-30T09:13:36;17.95;;;7.80;;
73428;SDS011;61643;49.564;17.412;2024-01-30T09:16:02;19.20;;;8.10;;
73428;SDS011;61643;49.564;17.412;2024-01-30T09:18:28;21.58;;;8.80;;
73428;SDS011;61643;49.564;17.412;2024-01-30T09:20:54;21.08;;;7.90;;
73428;SDS011;61643;49.564;17.412;2024-01-30T09:23:20;15.82;;;7.65;;
73428;SDS011;61643;49.564;17.412;2024-01-30T09:25:46;18.45;;;8.32;;
73428;SDS011;61643;49.564;17.412;2024-01-30T09:28:12;17.10;;;7.38;;
73428;SDS011;61643;49.564;17.412;2024-01-30T09:30:38;17.90;;;7.38;;
73428;SDS011;61643;49.564;17.412;2024-01-30T09:33:04;21.23;;;9.43;;
73428;SDS011;61643;49.564;17.412;2024-01-30T09:35:30;18.05;;;8.25;;
73428;SDS011;61643;49.564;17.412;2024-01-30T09:37:56;17.65;;;8.63;;
73428;SDS011;61643;49.564;17.412;2024-01-30T09:40:23;23.88;;;9.52;;
73428;SDS011;61643;49.564;17.412;2024-01-30T09:42:50;16.80;;;8.57;;
73428;SDS011;61643;49.564;17.412;2024-01-30T09:45:19;18.10;;;8.57;;
73428;SDS011;61643;49.564;17.412;2024-01-30T09:47:49;20.98;;;8.95;;
73428;SDS011;61643;49.564;17.412;2024-01-30T09:50:15;22.50;;;11.07;;
73428;SDS011;61643;49.564;17.412;2024-01-30T09:52:42;21.13;;;9.82;;
73428;SDS011;61643;49.564;17.412;2024-01-30T09:55:12;17.13;;;8.93;;
73428;SDS011;61643;49.564;17.412;2024-01-30T09:57:38;19.15;;;8.55;;
73428;SDS011;61643;49.564;17.412;2024-01-30T10:00:05;19.52;;;8.68;;
73428;SDS011;61643;49.564;17.412;2024-01-30T10:02:35;21.45;;;9.45;;
73428;SDS011;61643;49.564;17.412;2024-01-30T10:05:01;15.75;;;7.80;;
73428;SDS011;61643;49.564;17.412;2024-01-30T10:07:27;20.38;;;8.43;;
73428;SDS011;61643;49.564;17.412;2024-01-30T10:09:54;23.92;;;9.95;;
73428;SDS011;61643;49.564;17.412;2024-01-30T10:12:22;19.33;;;8.50;;
73428;SDS011;61643;49.564;17.412;2024-01-30T10:14:48;18.20;;;8.95;;
73428;SDS011;61643;49.564;17.412;2024-01-30T10:17:14;25.40;;;11.70;;
73428;SDS011;61643;49.564;17.412;2024-01-30T10:19:40;27.83;;;12.85;;
73428;SDS011;61643;49.564;17.412;2024-01-30T10:22:07;41.30;;;17.27;;
73428;SDS011;61643;49.564;17.412;2024-01-30T10:24:35;59.50;;;19.77;;
73428;SDS011;61643;49.564;17.412;2024-01-30T10:27:02;31.27;;;12.25;;
73428;SDS011;61643;49.564;17.412;2024-01-30T10:29:28;23.45;;;9.60;;
73428;SDS011;61643;49.564;17.412;2024-01-30T10:31:58;22.08;;;9.68;;
73428;SDS011;61643;49.564;17.412;2024-01-30T10:34:28;19.33;;;9.38;;
73428;SDS011;61643;49.564;17.412;2024-01-30T10:36:59;17.10;;;8.57;;
73428;SDS011;61643;49.564;17.412;2024-01-30T10:39:33;20.23;;;8.95;;
73428;SDS011;61643;49.564;17.412;2024-01-30T10:42:05;21.33;;;9.80;;
73428;SDS011;61643;49.564;17.412;2024-01-30T10:44:55;24.58;;;9.73;;
73428;SDS011;61643;49.564;17.412;2024-01-30T10:47:29;20.52;;;9.70;;
73428;SDS011;61643;49.564;17.412;2024-01-30T10:49:56;21.48;;;8.63;;
73428;SDS011;61643;49.564;17.412;2024-01-30T10:52:23;22.00;;;9.38;;
73428;SDS011;61643;49.564;17.412;2024-01-30T10:54:53;20.70;;;9.57;;
73428;SDS011;61643;49.564;17.412;2024-01-30T10:57:21;19.60;;;10.13;;
73428;SDS011;61643;49.564;17.412;2024-01-30T10:59:49;20.88;;;9.43;;
73428;SDS011;61643;49.564;17.412;2024-01-30T11:02:18;25.17;;;9.77;;
73428;SDS011;61643;49.564;17.412;2024-01-30T11:04:45;21.25;;;9.90;;
73428;SDS011;61643;49.564;17.412;2024-01-30T11:07:17;19.80;;;8.35;;
73428;SDS011;61643;49.564;17.412;2024-01-30T11:12:24;19.40;;;8.85;;
73428;SDS011;61643;49.564;17.412;2024-01-30T11:20:21;15.70;;;8.05;;
73428;SDS011;61643;49.564;17.412;2024-01-30T11:22:51;18.90;;;8.52;;
73428;SDS011;61643;49.564;17.412;2024-01-30T11:25:22;15.25;;;7.93;;
73428;SDS011;61643;49.564;17.412;2024-01-30T11:27:50;18.38;;;8.02;;
73428;SDS011;61643;49.564;17.412;2024-01-30T11:35:33;18.27;;;8.35;;
73428;SDS011;61643;49.564;17.412;2024-01-30T11:38:04;20.25;;;8.65;;
73428;SDS011;61643;49.564;17.412;2024-01-30T11:40:31;19.50;;;8.60;;
73428;SDS011;61643;49.564;17.412;2024-01-30T11:43:00;20.45;;;8.85;;
73428;SDS011;61643;49.564;17.412;2024-01-30T11:45:29;17.75;;;8.65;;
73428;SDS011;61643;49.564;17.412;2024-01-30T11:47:56;17.63;;;9.07;;
73428;SDS011;61643;49.564;17.412;2024-01-30T11:50:25;19.80;;;8.60;;
73428;SDS011;61643;49.564;17.412;2024-01-30T11:52:51;18.60;;;9.02;;
73428;SDS011;61643;49.564;17.412;2024-01-30T11:55:17;21.83;;;9.07;;
73428;SDS011;61643;49.564;17.412;2024-01-30T11:57:45;19.20;;;8.27;;
73428;SDS011;61643;49.564;17.412;2024-01-30T12:00:14;17.83;;;8.05;;
73428;SDS011;61643;49.564;17.412;2024-01-30T12:02:41;13.07;;;6.78;;
73428;SDS011;61643;49.564;17.412;2024-01-30T12:05:08;12.68;;;5.45;;
73428;SDS011;61643;49.564;17.412;2024-01-30T12:07:35;11.00;;;5.20;;
73428;SDS011;61643;49.564;17.412;2024-01-30T12:10:01;9.73;;;4.57;;
73428;SDS011;61643;49.564;17.412;2024-01-30T12:12:28;12.02;;;4.18;;
73428;SDS011;61643;49.564;17.412;2024-01-30T12:14:55;10.02;;;4.63;;
73428;SDS011;61643;49.564;17.412;2024-01-30T12:17:31;9.35;;;4.47;;
73428;SDS011;61643;49.564;17.412;2024-01-30T12:20:07;8.93;;;4.18;;
73428;SDS011;61643;49.564;17.412;2024-01-30T12:22:43;11.65;;;4.93;;
73428;SDS011;61643;49.564;17.412;2024-01-30T12:25:12;12.23;;;3.95;;
73428;SDS011;61643;49.564;17.412;2024-01-30T12:27:39;9.45;;;4.20;;
73428;SDS011;61643;49.564;17.412;2024-01-30T12:30:08;9.27;;;4.30;;
73428;SDS011;61643;49.564;17.412;2024-01-30T12:32:36;8.85;;;4.53;;
73428;SDS011;61643;49.564;17.412;2024-01-30T12:35:09;11.15;;;4.80;;
73428;SDS011;61643;49.564;17.412;2024-01-30T12:37:40;8.38;;;4.10;;
73428;SDS011;61643;49.564;17.412;2024-01-30T12:40:07;10.27;;;4.72;;
73428;SDS011;61643;49.564;17.412;2024-01-30T12:42:33;8.68;;;4.22;;
73428;SDS011;61643;49.564;17.412;2024-01-30T12:45:00;8.07;;;3.97;;
73428;SDS011;61643;49.564;17.412;2024-01-30T12:47:26;11.77;;;4.28;;
73428;SDS011;61643;49.564;17.412;2024-01-30T12:49:52;6.82;;;3.85;;
73428;SDS011;61643;49.564;17.412;2024-01-30T12:52:21;10.73;;;4.68;;
73428;SDS011;61643;49.564;17.412;2024-01-30T12:54:48;12.02;;;4.70;;
73428;SDS011;61643;49.564;17.412;2024-01-30T12:57:14;9.45;;;4.07;;
73428;SDS011;61643;49.564;17.412;2024-01-30T12:59:41;8.93;;;4.13;;
73428;SDS011;61643;49.564;17.412;2024-01-30T13:02:08;8.55;;;4.38;;
73428;SDS011;61643;49.564;17.412;2024-01-30T13:04:35;7.57;;;4.07;;
73428;SDS011;61643;49.564;17.412;2024-01-30T13:07:01;8.40;;;4.53;;
73428;SDS011;61643;49.564;17.412;2024-01-30T13:09:27;8.93;;;4.28;;
73428;SDS011;61643;49.564;17.412;2024-01-30T13:11:55;9.70;;;4.32;;
73428;SDS011;61643;49.564;17.412;2024-01-30T13:14:20;10.45;;;4.00;;
73428;SDS011;61643;49.564;17.412;2024-01-30T13:16:46;9.65;;;4.50;;
73428;SDS011;61643;49.564;17.412;2024-01-30T13:19:12;9.95;;;4.57;;
73428;SDS011;61643;49.564;17.412;2024-01-30T13:21:38;10.23;;;4.57;;
73428;SDS011;61643;49.564;17.412;2024-01-30T13:24:04;9.40;;;4.40;;
73428;SDS011;61643;49.564;17.412;2024-01-30T13:26:34;9.25;;;4.35;;
73428;SDS011;61643;49.564;17.412;2024-01-30T13:29:00;11.30;;;4.85;;
73428;SDS011;61643;49.564;17.412;2024-01-30T13:31:26;8.68;;;5.03;;
73428;SDS011;61643;49.564;17.412;2024-01-30T13:33:53;10.10;;;4.50;;
73428;SDS011;61643;49.564;17.412;2024-01-30T13:36:19;9.90;;;4.35;;
73428;SDS011;61643;49.564;17.412;2024-01-30T13:38:46;10.43;;;4.60;;
73428;SDS011;61643;49.564;17.412;2024-01-30T13:41:12;12.07;;;4.97;;
73428;SDS011;61643;49.564;17.412;2024-01-30T13:43:38;9.82;;;4.80;;
73428;SDS011;61643;49.564;17.412;2024-01-30T13:46:04;8.98;;;4.57;;
73428;SDS011;61643;49.564;17.412;2024-01-30T13:48:31;9.10;;;4.38;;
73428;SDS011;61643;49.564;17.412;2024-01-30T13:50:57;14.55;;;5.32;;
73428;SDS011;61643;49.564;17.412;2024-01-30T13:53:23;11.98;;;5.03;;
73428;SDS011;61643;49.564;17.412;2024-01-30T13:55:49;12.60;;;5.03;;
73428;SDS011;61643;49.564;17.412;2024-01-30T13:58:15;12.40;;;5.25;;
73428;SDS011;61643;49.564;17.412;2024-01-30T14:00:41;9.70;;;4.95;;
73428;SDS011;61643;49.564;17.412;2024-01-30T14:03:07;9.55;;;4.88;;
73428;SDS011;61643;49.564;17.412;2024-01-30T14:05:33;13.50;;;5.40;;
73428;SDS011;61643;49.564;17.412;2024-01-30T14:07:59;8.48;;;4.72;;
73428;SDS011;61643;49.564;17.412;2024-01-30T14:10:26;8.32;;;4.22;;
73428;SDS011;61643;49.564;17.412;2024-01-30T14:12:51;8.73;;;4.13;;
73428;SDS011;61643;49.564;17.412;2024-01-30T14:15:17;8.65;;;4.18;;
73428;SDS011;61643;49.564;17.412;2024-01-30T14:17:44;8.30;;;4.72;;
73428;SDS011;61643;49.564;17.412;2024-01-30T14:20:11;9.30;;;4.25;;
73428;SDS011;61643;49.564;17.412;2024-01-30T14:22:37;8.63;;;4.30;;
73428;SDS011;61643;49.564;17.412;2024-01-30T14:25:03;9.23;;;4.63;;
73428;SDS011;61643;49.564;17.412;2024-01-30T14:27:30;11.80;;;4.30;;
73428;SDS011;61643;49.564;17.412;2024-01-30T14:29:56;9.73;;;4.40;;
73428;SDS011;61643;49.564;17.412;2024-01-30T14:32:23;11.05;;;5.57;;